Hauptseite
METAR-TAF:

METAR-TAF

Flughäfen :

Adrar, Algerien

Breite: 27-53N, Länge: 000-17W, Höhe: 263 m

Beobachtung

Neuester Wetterbericht von vor 1 Stunde und 6 Minuten, um 21:00 UTC
Wind 5 kt aus Nord/Nordwest
Temperatur 14°C
Luftfeuchtigkeit 38%
Luftdruck 1019 hPa
Sichtweite 10 km oder mehr
keine Wolken unter 1500 m und keine Kumulonimbus oder Gewitterwolken

METAR: DAUA 072100Z 33005KT CAVOK 14/M00 Q1019

Zeit: 23:06 (22:06 UTC)

Prognose

Neuester Wetterbericht von vor 5 Stunden und 6 Minuten, um 17:00 UTC
Gültige Prognose vom 07 um 18 UTC bis 08 um 18 UTC
Wind 8 kt aus Nord/Nordwest
Sichtweite 10 km oder mehr
keine Wolken unter 1500 m und keine Kumulonimbus oder Gewitterwolken
Übergehend zu
vom 08 um 08 UTC bis 08 um 12 UTC
Wind 18 kt aus Nord/Nordost

TAF: DAUA 071700Z 0718/0818 34008KT CAVOK BECMG 0808/0812 02018KT

Wetterbeobachtungen und Prognosen von mehr als 4000 Flughäfen (METAR und TAF Bericht).

Die verfügbaren Stationen werden durch gelbe und rote Markierungen auf der Karte dargestellt.

Führen Sie die Maus auf sie, um den Namen der Station zu sehen.

Darauf klicken, um die Beobachtung von Wetterbeobachtungen und Prognosen zu sehen.

Um die Karte zu ändern : klicken Sie auf den grünen Tasten mit einem schwarzen Kreuz Zum Vergrößern, auf den grünen Button mit einem Gedankenstrich zu verkleinern, oder auf die grünen Pfeile für benachbarte Karten.


METAR-TAF: